createdAt,value
2023-03-06T00:07:25.243Z,5
2023-03-06T00:10:44.107Z,6
2023-03-06T00:16:14.335Z,7
2023-03-06T00:21:44.485Z,4
2023-03-06T00:27:14.642Z,5
2023-03-06T00:38:14.997Z,6
2023-03-06T00:43:45.156Z,4
2023-03-06T00:49:15.342Z,7
2023-03-06T01:00:15.707Z,6
2023-03-06T01:07:30.845Z,6
2023-03-06T01:11:16.017Z,5
2023-03-06T01:22:16.367Z,6
2023-03-06T01:33:16.690Z,5
2023-03-06T01:38:46.864Z,6
2023-03-06T01:55:17.411Z,9
2023-03-06T02:00:47.610Z,5
2023-03-06T02:06:17.789Z,7
2023-03-06T02:07:36.284Z,7
2023-03-06T02:11:48.069Z,5
2023-03-06T02:22:48.261Z,7
2023-03-06T02:28:18.437Z,5
2023-03-06T02:33:48.602Z,6
2023-03-06T02:39:18.825Z,5
2023-03-06T02:44:48.979Z,8
2023-03-06T02:55:49.332Z,6
2023-03-06T03:07:41.815Z,6
2023-03-06T03:17:49.992Z,8
2023-03-06T03:23:20.300Z,7
2023-03-06T03:45:20.925Z,10
2023-03-06T03:50:51.062Z,6
2023-03-06T03:56:21.253Z,7
2023-03-06T04:01:51.462Z,5
2023-03-06T05:05:32.122Z,10
2023-03-06T05:07:53.472Z,8
2023-03-06T05:13:23.638Z,10
2023-03-06T05:18:53.823Z,12
2023-03-06T05:24:24.022Z,15
2023-03-06T05:29:54.186Z,11
2023-03-06T05:35:24.592Z,13
2023-03-06T05:40:54.593Z,11
2023-03-06T05:46:24.774Z,10
2023-03-06T05:57:25.071Z,9
2023-03-06T06:02:55.260Z,12
2023-03-06T06:05:37.687Z,12
2023-03-06T06:08:25.397Z,13
2023-03-06T06:13:55.957Z,14
2023-03-06T06:30:26.132Z,15
2023-03-06T06:47:21.638Z,13
2023-03-06T06:57:56.924Z,15
2023-03-06T07:03:27.149Z,13
2023-03-06T07:05:43.125Z,13
2023-03-06T07:14:27.534Z,18
2023-03-06T07:19:57.730Z,17
2023-03-06T07:25:27.875Z,18
2023-03-06T07:30:58.817Z,17
2023-03-06T07:36:28.283Z,18
2023-03-06T07:41:58.892Z,17
2023-03-06T07:47:28.798Z,19
2023-03-06T07:52:58.676Z,17
2023-03-06T07:58:28.868Z,13
2023-03-06T08:03:59.113Z,14
2023-03-06T08:05:48.689Z,14
2023-03-06T08:09:29.204Z,20
2023-03-06T08:14:59.389Z,16
2023-03-06T08:20:29.569Z,14
2023-03-06T08:37:00.083Z,16
2023-03-06T08:42:30.790Z,15
2023-03-06T08:48:00.396Z,16
2023-03-06T08:59:00.876Z,15
2023-03-06T09:04:30.946Z,16
2023-03-06T09:05:54.243Z,16
2023-03-06T09:10:02.406Z,14
2023-03-06T09:15:31.576Z,15
2023-03-06T09:21:01.475Z,16
2023-03-06T09:26:44.941Z,19
2023-03-06T09:32:02.509Z,14
2023-03-06T09:43:02.149Z,8
2023-03-06T09:54:02.484Z,5
2023-03-06T10:05:02.930Z,8
2023-03-06T10:06:02.260Z,8
2023-03-06T10:10:33.426Z,5
2023-03-06T10:16:03.463Z,6
2023-03-06T10:21:33.458Z,5
2023-03-06T10:27:03.747Z,7
2023-03-06T10:32:42.804Z,4
2023-03-06T10:38:03.910Z,6
2023-03-06T10:43:36.249Z,7
2023-03-06T10:49:04.214Z,6
2023-03-06T10:54:34.518Z,10
2023-03-06T11:00:09.674Z,6
2023-03-06T11:06:05.249Z,6
2023-03-06T11:22:05.620Z,4
2023-03-06T11:27:35.568Z,6
2023-03-06T12:00:36.589Z,4
2023-03-06T12:06:10.791Z,2
2023-03-06T12:11:36.866Z,4
2023-03-06T12:22:37.214Z,5
2023-03-06T12:33:37.559Z,6
2023-03-06T12:50:08.160Z,4
2023-03-06T13:01:08.688Z,6
2023-03-06T13:06:16.258Z,6
2023-03-06T13:06:51.492Z,4
2023-03-06T13:17:39.036Z,5
2023-03-06T13:23:09.117Z,4
2023-03-06T13:28:39.282Z,2
2023-03-06T13:34:09.481Z,4
2023-03-06T13:39:39.676Z,3
2023-03-06T13:45:09.819Z,4
2023-03-06T13:50:39.986Z,5
2023-03-06T14:01:40.499Z,7
2023-03-06T14:06:21.724Z,7
2023-03-06T14:12:40.793Z,4
2023-03-06T14:18:10.834Z,12
2023-03-06T14:23:40.995Z,4
2023-03-06T14:29:11.170Z,2
2023-03-06T14:34:41.364Z,5
2023-03-06T14:40:11.911Z,2
2023-03-06T14:45:41.744Z,3
2023-03-06T14:51:11.923Z,2
2023-03-06T15:06:27.254Z,2
2023-03-06T15:07:42.449Z,3
2023-03-06T15:18:42.760Z,1
2023-03-06T15:24:12.928Z,3
2023-03-06T15:29:43.099Z,2
2023-03-06T15:35:13.359Z,3
2023-03-06T15:40:43.428Z,2
2023-03-06T15:51:43.845Z,8
2023-03-06T15:57:13.974Z,3
2023-03-06T16:06:32.678Z,3
2023-03-06T16:08:14.313Z,4
2023-03-06T16:19:25.153Z,3
2023-03-06T16:24:44.886Z,2
2023-03-06T16:30:15.088Z,3
2023-03-06T16:35:45.205Z,5
2023-03-06T16:41:15.496Z,4
2023-03-06T16:46:45.585Z,5
2023-03-06T16:52:15.747Z,9
2023-03-06T16:57:45.914Z,4
2023-03-06T17:03:16.074Z,3
2023-03-06T17:06:38.218Z,3
2023-03-06T17:08:46.247Z,5
2023-03-06T17:14:16.404Z,14
2023-03-06T17:19:46.597Z,6
2023-03-06T17:25:16.919Z,5
2023-03-06T17:30:46.999Z,8
2023-03-06T17:36:17.140Z,9
2023-03-06T17:47:17.453Z,10
2023-03-06T17:58:17.789Z,8
2023-03-06T18:06:43.635Z,8
2023-03-06T18:09:18.143Z,6
2023-03-06T18:14:48.316Z,8
2023-03-06T18:20:18.861Z,10
2023-03-06T18:25:48.701Z,9
2023-03-06T18:31:18.900Z,7
2023-03-06T18:36:49.002Z,9
2023-03-06T18:42:19.217Z,11
2023-03-06T18:58:49.683Z,9
2023-03-06T19:04:19.891Z,8
2023-03-06T19:06:49.184Z,8
2023-03-06T19:09:50.027Z,9
2023-03-06T19:15:20.387Z,8
2023-03-06T19:31:50.773Z,10
2023-03-06T19:37:20.914Z,9
2023-03-06T19:48:22.776Z,8
2023-03-06T19:53:51.376Z,9
2023-03-06T20:06:54.678Z,9
2023-03-06T20:10:21.930Z,11
2023-03-06T20:15:52.104Z,9
2023-03-06T20:21:22.250Z,8
2023-03-06T20:26:52.534Z,11
2023-03-06T20:32:22.705Z,13
2023-03-06T20:37:52.754Z,10
2023-03-06T20:43:22.898Z,11
2023-03-06T20:48:53.065Z,12
2023-03-06T20:59:53.427Z,13
2023-03-06T21:07:00.129Z,13
2023-03-06T21:10:53.803Z,17
2023-03-06T21:16:24.057Z,14
2023-03-06T21:27:24.330Z,15
2023-03-06T21:32:54.439Z,18
2023-03-06T21:38:24.615Z,17
2023-03-06T21:43:54.794Z,25
2023-03-06T21:54:55.174Z,27
2023-03-06T22:00:25.339Z,26
2023-03-06T22:05:55.531Z,25
2023-03-06T22:07:05.664Z,25
2023-03-06T22:11:25.691Z,18
2023-03-06T22:16:55.925Z,25
2023-03-06T22:22:26.114Z,27
2023-03-06T22:27:56.153Z,28
2023-03-06T22:38:56.516Z,26
2023-03-06T22:44:26.673Z,28
2023-03-06T22:55:26.996Z,30
2023-03-06T23:00:57.214Z,26
2023-03-06T23:06:27.346Z,31
2023-03-06T23:07:11.160Z,31
2023-03-06T23:11:57.525Z,29
2023-03-06T23:17:27.690Z,27
2023-03-06T23:22:57.903Z,28
2023-03-06T23:28:28.011Z,25
2023-03-06T23:33:58.214Z,26
2023-03-06T23:39:28.355Z,20
2023-03-06T23:44:58.561Z,27
2023-03-06T23:50:28.731Z,25
2023-03-06T23:55:58.923Z,28
